sensor_id;sensor_type;location;lat;lon;timestamp;P1;durP1;ratioP1;P2;durP2;ratioP2
43994;SDS011;51687;52.160;5.298;2024-03-23T00:55:35;26.85;;;10.40;;
43994;SDS011;51687;52.160;5.298;2024-03-23T00:58:01;35.80;;;12.68;;
43994;SDS011;51687;52.160;5.298;2024-03-23T01:00:27;28.85;;;10.32;;
43994;SDS011;51687;52.160;5.298;2024-03-23T01:02:53;28.35;;;11.27;;
43994;SDS011;51687;52.160;5.298;2024-03-23T01:05:19;30.98;;;12.05;;
43994;SDS011;51687;52.160;5.298;2024-03-23T01:07:44;22.10;;;11.25;;
43994;SDS011;51687;52.160;5.298;2024-03-23T01:10:10;25.88;;;10.48;;
43994;SDS011;51687;52.160;5.298;2024-03-23T01:12:36;30.08;;;10.98;;
43994;SDS011;51687;52.160;5.298;2024-03-23T01:15:02;29.00;;;9.73;;
43994;SDS011;51687;52.160;5.298;2024-03-23T01:17:28;43.10;;;12.02;;
43994;SDS011;51687;52.160;5.298;2024-03-23T01:19:54;33.13;;;10.35;;
43994;SDS011;51687;52.160;5.298;2024-03-23T01:22:19;35.30;;;11.05;;
43994;SDS011;51687;52.160;5.298;2024-03-23T01:24:45;28.45;;;10.52;;
43994;SDS011;51687;52.160;5.298;2024-03-23T01:27:11;33.47;;;11.70;;
43994;SDS011;51687;52.160;5.298;2024-03-23T01:29:37;19.90;;;9.25;;
43994;SDS011;51687;52.160;5.298;2024-03-23T01:32:05;29.30;;;10.45;;
43994;SDS011;51687;52.160;5.298;2024-03-23T01:34:32;27.02;;;10.27;;
43994;SDS011;51687;52.160;5.298;2024-03-23T01:36:58;33.03;;;10.60;;
43994;SDS011;51687;52.160;5.298;2024-03-23T01:39:24;25.17;;;9.55;;
43994;SDS011;51687;52.160;5.298;2024-03-23T01:41:50;20.45;;;8.77;;
43994;SDS011;51687;52.160;5.298;2024-03-23T01:44:16;27.27;;;8.65;;
43994;SDS011;51687;52.160;5.298;2024-03-23T01:46:43;28.10;;;9.38;;
43994;SDS011;51687;52.160;5.298;2024-03-23T01:49:09;21.85;;;9.00;;
43994;SDS011;51687;52.160;5.298;2024-03-23T01:51:36;29.02;;;9.95;;
43994;SDS011;51687;52.160;5.298;2024-03-23T01:54:02;29.02;;;9.55;;
43994;SDS011;51687;52.160;5.298;2024-03-23T01:56:32;24.23;;;9.00;;
43994;SDS011;51687;52.160;5.298;2024-03-23T01:59:04;24.02;;;8.48;;
43994;SDS011;51687;52.160;5.298;2024-03-23T02:01:30;24.10;;;9.13;;
43994;SDS011;51687;52.160;5.298;2024-03-23T02:04:01;26.15;;;8.68;;
43994;SDS011;51687;52.160;5.298;2024-03-23T02:06:27;24.67;;;9.18;;
43994;SDS011;51687;52.160;5.298;2024-03-23T02:08:57;18.10;;;8.70;;
43994;SDS011;51687;52.160;5.298;2024-03-23T02:11:23;26.67;;;9.52;;
43994;SDS011;51687;52.160;5.298;2024-03-23T02:13:49;24.83;;;8.80;;
43994;SDS011;51687;52.160;5.298;2024-03-23T02:16:15;18.67;;;8.15;;
43994;SDS011;51687;52.160;5.298;2024-03-23T02:18:40;26.27;;;7.85;;
43994;SDS011;51687;52.160;5.298;2024-03-23T02:21:06;16.55;;;7.50;;
43994;SDS011;51687;52.160;5.298;2024-03-23T02:23:32;23.08;;;8.00;;
43994;SDS011;51687;52.160;5.298;2024-03-23T02:25:58;21.15;;;7.82;;
43994;SDS011;51687;52.160;5.298;2024-03-23T02:28:24;30.83;;;8.68;;
43994;SDS011;51687;52.160;5.298;2024-03-23T02:30:49;34.17;;;8.80;;
43994;SDS011;51687;52.160;5.298;2024-03-23T02:33:16;25.92;;;7.45;;
43994;SDS011;51687;52.160;5.298;2024-03-23T02:35:45;32.60;;;8.13;;
43994;SDS011;51687;52.160;5.298;2024-03-23T02:38:12;26.60;;;8.18;;
43994;SDS011;51687;52.160;5.298;2024-03-23T02:40:38;32.13;;;8.63;;
43994;SDS011;51687;52.160;5.298;2024-03-23T02:43:04;17.80;;;7.22;;
43994;SDS011;51687;52.160;5.298;2024-03-23T02:45:30;19.95;;;7.70;;
43994;SDS011;51687;52.160;5.298;2024-03-23T02:47:56;26.85;;;7.82;;
43994;SDS011;51687;52.160;5.298;2024-03-23T02:50:22;21.52;;;7.15;;
43994;SDS011;51687;52.160;5.298;2024-03-23T02:52:48;24.92;;;7.85;;
43994;SDS011;51687;52.160;5.298;2024-03-23T02:55:14;21.48;;;7.93;;
43994;SDS011;51687;52.160;5.298;2024-03-23T02:57:40;17.27;;;6.65;;
43994;SDS011;51687;52.160;5.298;2024-03-23T03:00:07;23.95;;;7.28;;
43994;SDS011;51687;52.160;5.298;2024-03-23T03:02:34;20.00;;;7.53;;
43994;SDS011;51687;52.160;5.298;2024-03-23T03:05:00;23.63;;;7.07;;
43994;SDS011;51687;52.160;5.298;2024-03-23T03:07:26;17.33;;;6.72;;
43994;SDS011;51687;52.160;5.298;2024-03-23T03:09:52;18.45;;;6.00;;
43994;SDS011;51687;52.160;5.298;2024-03-23T03:12:20;14.10;;;6.88;;
43994;SDS011;51687;52.160;5.298;2024-03-23T03:14:46;17.63;;;6.50;;
43994;SDS011;51687;52.160;5.298;2024-03-23T03:17:13;21.67;;;6.55;;
43994;SDS011;51687;52.160;5.298;2024-03-23T03:19:40;23.02;;;7.07;;
43994;SDS011;51687;52.160;5.298;2024-03-23T03:22:08;17.85;;;6.53;;
43994;SDS011;51687;52.160;5.298;2024-03-23T03:24:33;26.00;;;7.30;;
43994;SDS011;51687;52.160;5.298;2024-03-23T03:26:59;21.15;;;5.70;;
43994;SDS011;51687;52.160;5.298;2024-03-23T03:29:25;12.93;;;5.75;;
43994;SDS011;51687;52.160;5.298;2024-03-23T03:31:51;12.85;;;6.25;;
43994;SDS011;51687;52.160;5.298;2024-03-23T03:34:17;17.25;;;5.78;;
43994;SDS011;51687;52.160;5.298;2024-03-23T03:36:43;17.52;;;5.05;;
43994;SDS011;51687;52.160;5.298;2024-03-23T03:39:10;16.88;;;5.40;;
43994;SDS011;51687;52.160;5.298;2024-03-23T03:41:36;14.48;;;4.57;;
43994;SDS011;51687;52.160;5.298;2024-03-23T03:44:02;20.20;;;5.82;;
43994;SDS011;51687;52.160;5.298;2024-03-23T03:46:28;19.83;;;4.82;;
43994;SDS011;51687;52.160;5.298;2024-03-23T03:48:54;20.33;;;5.05;;
43994;SDS011;51687;52.160;5.298;2024-03-23T03:51:20;19.90;;;5.10;;
43994;SDS011;51687;52.160;5.298;2024-03-23T03:53:46;18.23;;;4.30;;
43994;SDS011;51687;52.160;5.298;2024-03-23T03:56:12;13.82;;;4.68;;
43994;SDS011;51687;52.160;5.298;2024-03-23T03:58:39;10.40;;;4.90;;
43994;SDS011;51687;52.160;5.298;2024-03-23T04:01:05;17.77;;;4.70;;
43994;SDS011;51687;52.160;5.298;2024-03-23T04:03:31;12.60;;;4.13;;
43994;SDS011;51687;52.160;5.298;2024-03-23T04:05:57;22.95;;;4.85;;
43994;SDS011;51687;52.160;5.298;2024-03-23T04:08:23;18.83;;;4.32;;
43994;SDS011;51687;52.160;5.298;2024-03-23T04:10:49;17.65;;;5.13;;
43994;SDS011;51687;52.160;5.298;2024-03-23T04:13:15;17.40;;;5.05;;
43994;SDS011;51687;52.160;5.298;2024-03-23T04:15:41;13.25;;;4.47;;
43994;SDS011;51687;52.160;5.298;2024-03-23T04:18:07;13.98;;;4.72;;
43994;SDS011;51687;52.160;5.298;2024-03-23T04:20:33;14.82;;;3.55;;
43994;SDS011;51687;52.160;5.298;2024-03-23T04:22:59;9.05;;;4.13;;
43994;SDS011;51687;52.160;5.298;2024-03-23T04:25:25;11.82;;;4.53;;
43994;SDS011;51687;52.160;5.298;2024-03-23T04:27:51;12.02;;;4.30;;
43994;SDS011;51687;52.160;5.298;2024-03-23T04:30:18;13.40;;;3.80;;
43994;SDS011;51687;52.160;5.298;2024-03-23T04:32:44;17.40;;;4.72;;
43994;SDS011;51687;52.160;5.298;2024-03-23T04:35:10;13.00;;;4.05;;
43994;SDS011;51687;52.160;5.298;2024-03-23T04:37:38;10.10;;;3.75;;
43994;SDS011;51687;52.160;5.298;2024-03-23T04:40:07;12.20;;;4.75;;
43994;SDS011;51687;52.160;5.298;2024-03-23T04:42:33;14.70;;;4.15;;
43994;SDS011;51687;52.160;5.298;2024-03-23T04:44:59;12.27;;;4.35;;
43994;SDS011;51687;52.160;5.298;2024-03-23T04:47:25;11.65;;;3.83;;
43994;SDS011;51687;52.160;5.298;2024-03-23T04:49:51;10.40;;;3.75;;
43994;SDS011;51687;52.160;5.298;2024-03-23T04:52:17;12.85;;;4.03;;
43994;SDS011;51687;52.160;5.298;2024-03-23T04:54:43;14.38;;;4.53;;
43994;SDS011;51687;52.160;5.298;2024-03-23T04:57:10;14.25;;;4.07;;
43994;SDS011;51687;52.160;5.298;2024-03-23T04:59:36;12.80;;;4.00;;
43994;SDS011;51687;52.160;5.298;2024-03-23T05:02:02;12.98;;;4.60;;
43994;SDS011;51687;52.160;5.298;2024-03-23T05:04:28;16.90;;;4.60;;
43994;SDS011;51687;52.160;5.298;2024-03-23T05:06:54;10.30;;;3.97;;
43994;SDS011;51687;52.160;5.298;2024-03-23T05:09:20;12.68;;;3.50;;
43994;SDS011;51687;52.160;5.298;2024-03-23T05:11:46;8.70;;;3.72;;
43994;SDS011;51687;52.160;5.298;2024-03-23T05:14:14;10.00;;;3.35;;
43994;SDS011;51687;52.160;5.298;2024-03-23T05:16:40;9.50;;;3.67;;
43994;SDS011;51687;52.160;5.298;2024-03-23T05:19:07;13.88;;;3.50;;
43994;SDS011;51687;52.160;5.298;2024-03-23T05:21:33;16.08;;;3.53;;
43994;SDS011;51687;52.160;5.298;2024-03-23T05:23:59;13.65;;;3.90;;
43994;SDS011;51687;52.160;5.298;2024-03-23T05:26:26;10.18;;;4.15;;
43994;SDS011;51687;52.160;5.298;2024-03-23T05:28:53;10.88;;;3.25;;
43994;SDS011;51687;52.160;5.298;2024-03-23T05:31:26;13.18;;;3.63;;
43994;SDS011;51687;52.160;5.298;2024-03-23T05:33:53;15.25;;;3.70;;
43994;SDS011;51687;52.160;5.298;2024-03-23T05:36:19;11.00;;;3.92;;
43994;SDS011;51687;52.160;5.298;2024-03-23T05:38:45;13.02;;;3.17;;
43994;SDS011;51687;52.160;5.298;2024-03-23T05:41:11;15.98;;;3.95;;
43994;SDS011;51687;52.160;5.298;2024-03-23T05:43:37;12.10;;;3.15;;
43994;SDS011;51687;52.160;5.298;2024-03-23T05:46:04;10.27;;;3.13;;
43994;SDS011;51687;52.160;5.298;2024-03-23T05:48:30;15.57;;;4.70;;
43994;SDS011;51687;52.160;5.298;2024-03-23T05:50:56;8.00;;;3.42;;
43994;SDS011;51687;52.160;5.298;2024-03-23T05:53:23;9.38;;;2.78;;
43994;SDS011;51687;52.160;5.298;2024-03-23T05:55:49;8.57;;;2.63;;
43994;SDS011;51687;52.160;5.298;2024-03-23T05:58:16;12.20;;;2.97;;
43994;SDS011;51687;52.160;5.298;2024-03-23T06:00:43;13.52;;;4.03;;
43994;SDS011;51687;52.160;5.298;2024-03-23T06:03:10;13.90;;;3.28;;
43994;SDS011;51687;52.160;5.298;2024-03-23T06:05:36;11.88;;;2.90;;
43994;SDS011;51687;52.160;5.298;2024-03-23T06:08:03;11.20;;;3.83;;
43994;SDS011;51687;52.160;5.298;2024-03-23T06:10:29;10.00;;;3.28;;
43994;SDS011;51687;52.160;5.298;2024-03-23T06:12:55;13.30;;;2.80;;
43994;SDS011;51687;52.160;5.298;2024-03-23T06:15:21;9.10;;;3.35;;
43994;SDS011;51687;52.160;5.298;2024-03-23T06:17:48;11.00;;;2.80;;
43994;SDS011;51687;52.160;5.298;2024-03-23T06:20:15;12.20;;;2.70;;
43994;SDS011;51687;52.160;5.298;2024-03-23T06:22:42;11.15;;;3.10;;
43994;SDS011;51687;52.160;5.298;2024-03-23T06:25:08;16.07;;;3.47;;
43994;SDS011;51687;52.160;5.298;2024-03-23T06:27:35;12.05;;;3.13;;
43994;SDS011;51687;52.160;5.298;2024-03-23T06:30:01;13.13;;;2.97;;
43994;SDS011;51687;52.160;5.298;2024-03-23T06:32:27;15.57;;;2.70;;
43994;SDS011;51687;52.160;5.298;2024-03-23T06:34:57;10.02;;;2.90;;
43994;SDS011;51687;52.160;5.298;2024-03-23T06:37:23;11.63;;;2.67;;
43994;SDS011;51687;52.160;5.298;2024-03-23T06:39:49;8.45;;;2.70;;
43994;SDS011;51687;52.160;5.298;2024-03-23T06:42:15;13.63;;;3.00;;
43994;SDS011;51687;52.160;5.298;2024-03-23T06:44:42;11.70;;;2.70;;
43994;SDS011;51687;52.160;5.298;2024-03-23T06:47:09;17.27;;;3.92;;
43994;SDS011;51687;52.160;5.298;2024-03-23T06:49:35;13.40;;;3.83;;
43994;SDS011;51687;52.160;5.298;2024-03-23T06:52:01;9.93;;;2.85;;
43994;SDS011;51687;52.160;5.298;2024-03-23T06:54:28;15.52;;;3.35;;
43994;SDS011;51687;52.160;5.298;2024-03-23T06:56:54;15.40;;;4.38;;
43994;SDS011;51687;52.160;5.298;2024-03-23T06:59:20;9.93;;;3.67;;
43994;SDS011;51687;52.160;5.298;2024-03-23T07:01:46;8.75;;;3.25;;
43994;SDS011;51687;52.160;5.298;2024-03-23T07:04:13;17.58;;;3.30;;
43994;SDS011;51687;52.160;5.298;2024-03-23T07:06:45;8.73;;;3.47;;
43994;SDS011;51687;52.160;5.298;2024-03-23T07:09:12;15.68;;;3.33;;
43994;SDS011;51687;52.160;5.298;2024-03-23T07:11:38;13.90;;;4.85;;
43994;SDS011;51687;52.160;5.298;2024-03-23T07:14:04;14.15;;;3.35;;
43994;SDS011;51687;52.160;5.298;2024-03-23T07:16:30;16.70;;;4.57;;
43994;SDS011;51687;52.160;5.298;2024-03-23T07:18:57;12.45;;;4.20;;
43994;SDS011;51687;52.160;5.298;2024-03-23T07:21:24;14.20;;;3.70;;
43994;SDS011;51687;52.160;5.298;2024-03-23T07:23:50;18.80;;;4.75;;
43994;SDS011;51687;52.160;5.298;2024-03-23T07:26:16;10.82;;;3.83;;
43994;SDS011;51687;52.160;5.298;2024-03-23T07:28:44;12.88;;;3.47;;
43994;SDS011;51687;52.160;5.298;2024-03-23T07:31:11;14.88;;;4.45;;
43994;SDS011;51687;52.160;5.298;2024-03-23T07:33:42;14.90;;;3.97;;
43994;SDS011;51687;52.160;5.298;2024-03-23T07:36:08;15.93;;;4.32;;
43994;SDS011;51687;52.160;5.298;2024-03-23T07:38:35;11.98;;;4.00;;
43994;SDS011;51687;52.160;5.298;2024-03-23T07:43:34;9.98;;;3.25;;
43994;SDS011;51687;52.160;5.298;2024-03-23T07:46:00;16.23;;;3.45;;
43994;SDS011;51687;52.160;5.298;2024-03-23T07:48:27;10.77;;;3.00;;
43994;SDS011;51687;52.160;5.298;2024-03-23T07:53:23;15.30;;;3.75;;
43994;SDS011;51687;52.160;5.298;2024-03-23T07:55:54;8.88;;;3.13;;
43994;SDS011;51687;52.160;5.298;2024-03-23T07:58:20;16.55;;;3.22;;
43994;SDS011;51687;52.160;5.298;2024-03-23T08:00:46;14.52;;;2.80;;
43994;SDS011;51687;52.160;5.298;2024-03-23T08:03:14;11.15;;;3.47;;
43994;SDS011;51687;52.160;5.298;2024-03-23T08:05:40;12.00;;;3.85;;
43994;SDS011;51687;52.160;5.298;2024-03-23T08:08:06;12.13;;;2.67;;
43994;SDS011;51687;52.160;5.298;2024-03-23T08:10:32;10.73;;;3.28;;
43994;SDS011;51687;52.160;5.298;2024-03-23T08:12:59;11.82;;;3.10;;
43994;SDS011;51687;52.160;5.298;2024-03-23T08:15:25;11.90;;;2.75;;
43994;SDS011;51687;52.160;5.298;2024-03-23T08:17:51;14.32;;;4.10;;
43994;SDS011;51687;52.160;5.298;2024-03-23T08:20:17;12.07;;;3.80;;
43994;SDS011;51687;52.160;5.298;2024-03-23T08:22:43;10.52;;;2.80;;
43994;SDS011;51687;52.160;5.298;2024-03-23T08:25:10;12.77;;;3.20;;
43994;SDS011;51687;52.160;5.298;2024-03-23T08:27:36;9.00;;;2.63;;
43994;SDS011;51687;52.160;5.298;2024-03-23T08:30:02;14.98;;;2.85;;
43994;SDS011;51687;52.160;5.298;2024-03-23T08:32:28;8.48;;;2.53;;
43994;SDS011;51687;52.160;5.298;2024-03-23T08:34:56;9.88;;;2.88;;
43994;SDS011;51687;52.160;5.298;2024-03-23T08:37:22;8.30;;;2.28;;
43994;SDS011;51687;52.160;5.298;2024-03-23T08:39:50;11.38;;;2.70;;
43994;SDS011;51687;52.160;5.298;2024-03-23T08:42:18;9.20;;;2.20;;
43994;SDS011;51687;52.160;5.298;2024-03-23T08:44:44;15.25;;;2.95;;
43994;SDS011;51687;52.160;5.298;2024-03-23T08:49:39;19.90;;;3.20;;
43994;SDS011;51687;52.160;5.298;2024-03-23T08:52:05;10.07;;;2.47;;
43994;SDS011;51687;52.160;5.298;2024-03-23T08:54:32;12.20;;;2.63;;
43994;SDS011;51687;52.160;5.298;2024-03-23T08:56:58;9.88;;;2.88;;
43994;SDS011;51687;52.160;5.298;2024-03-23T08:59:24;11.48;;;2.45;;
43994;SDS011;51687;52.160;5.298;2024-03-23T09:01:51;9.38;;;2.55;;
43994;SDS011;51687;52.160;5.298;2024-03-23T09:04:17;7.70;;;1.80;;
43994;SDS011;51687;52.160;5.298;2024-03-23T09:06:43;6.43;;;1.77;;
43994;SDS011;51687;52.160;5.298;2024-03-23T09:09:09;4.57;;;1.55;;
43994;SDS011;51687;52.160;5.298;2024-03-23T09:11:35;6.53;;;1.80;;
43994;SDS011;51687;52.160;5.298;2024-03-23T09:14:03;9.73;;;2.38;;
43994;SDS011;51687;52.160;5.298;2024-03-23T09:16:30;7.20;;;2.33;;
43994;SDS011;51687;52.160;5.298;2024-03-23T09:18:56;12.82;;;2.75;;
43994;SDS011;51687;52.160;5.298;2024-03-23T09:21:22;8.48;;;2.28;;
43994;SDS011;51687;52.160;5.298;2024-03-23T09:23:48;10.30;;;2.47;;
43994;SDS011;51687;52.160;5.298;2024-03-23T09:26:15;8.52;;;2.20;;
43994;SDS011;51687;52.160;5.298;2024-03-23T09:28:41;11.35;;;2.72;;
43994;SDS011;51687;52.160;5.298;2024-03-23T09:31:08;11.55;;;2.70;;
43994;SDS011;51687;52.160;5.298;2024-03-23T09:33:39;11.20;;;2.83;;
43994;SDS011;51687;52.160;5.298;2024-03-23T09:36:06;8.25;;;2.80;;
43994;SDS011;51687;52.160;5.298;2024-03-23T09:38:32;8.07;;;1.80;;
43994;SDS011;51687;52.160;5.298;2024-03-23T09:40:59;8.13;;;2.67;;
43994;SDS011;51687;52.160;5.298;2024-03-23T09:43:25;10.65;;;2.95;;
43994;SDS011;51687;52.160;5.298;2024-03-23T09:45:52;8.63;;;2.60;;
43994;SDS011;51687;52.160;5.298;2024-03-23T09:48:18;9.68;;;2.83;;
43994;SDS011;51687;52.160;5.298;2024-03-23T09:50:45;7.25;;;2.22;;
43994;SDS011;51687;52.160;5.298;2024-03-23T09:53:12;15.98;;;3.28;;
43994;SDS011;51687;52.160;5.298;2024-03-23T09:55:42;13.05;;;2.90;;
43994;SDS011;51687;52.160;5.298;2024-03-23T09:58:14;7.28;;;2.25;;
43994;SDS011;51687;52.160;5.298;2024-03-23T10:00:40;6.93;;;2.85;;
43994;SDS011;51687;52.160;5.298;2024-03-23T10:03:06;15.93;;;3.72;;
43994;SDS011;51687;52.160;5.298;2024-03-23T10:05:33;16.17;;;4.05;;
43994;SDS011;51687;52.160;5.298;2024-03-23T10:08:00;8.68;;;2.95;;
43994;SDS011;51687;52.160;5.298;2024-03-23T10:10:36;11.32;;;2.97;;
43994;SDS011;51687;52.160;5.298;2024-03-23T10:13:04;9.48;;;2.78;;
43994;SDS011;51687;52.160;5.298;2024-03-23T10:15:30;11.75;;;2.47;;
43994;SDS011;51687;52.160;5.298;2024-03-23T10:18:00;9.68;;;2.65;;
43994;SDS011;51687;52.160;5.298;2024-03-23T10:20:43;9.55;;;2.13;;
43994;SDS011;51687;52.160;5.298;2024-03-23T10:23:19;10.68;;;2.97;;
43994;SDS011;51687;52.160;5.298;2024-03-23T10:25:46;15.27;;;2.75;;
43994;SDS011;51687;52.160;5.298;2024-03-23T10:28:13;8.50;;;2.90;;
43994;SDS011;51687;52.160;5.298;2024-03-23T10:30:39;11.90;;;2.97;;
43994;SDS011;51687;52.160;5.298;2024-03-23T10:33:11;10.25;;;2.42;;
43994;SDS011;51687;52.160;5.298;2024-03-23T10:35:39;11.57;;;2.70;;
43994;SDS011;51687;52.160;5.298;2024-03-23T10:38:06;12.38;;;2.85;;
43994;SDS011;51687;52.160;5.298;2024-03-23T10:40:35;11.90;;;2.42;;
43994;SDS011;51687;52.160;5.298;2024-03-23T10:43:05;9.10;;;2.35;;
43994;SDS011;51687;52.160;5.298;2024-03-23T10:45:32;7.90;;;2.53;;
43994;SDS011;51687;52.160;5.298;2024-03-23T10:47:59;9.70;;;2.90;;
43994;SDS011;51687;52.160;5.298;2024-03-23T10:50:25;10.80;;;2.90;;
43994;SDS011;51687;52.160;5.298;2024-03-23T10:52:52;7.75;;;2.03;;
43994;SDS011;51687;52.160;5.298;2024-03-23T10:55:20;10.90;;;2.63;;
43994;SDS011;51687;52.160;5.298;2024-03-23T10:57:55;8.70;;;2.83;;
43994;SDS011;51687;52.160;5.298;2024-03-23T11:00:24;13.80;;;2.85;;
43994;SDS011;51687;52.160;5.298;2024-03-23T11:02:51;10.93;;;2.70;;
43994;SDS011;51687;52.160;5.298;2024-03-23T11:07:50;9.30;;;2.45;;
43994;SDS011;51687;52.160;5.298;2024-03-23T11:10:27;10.40;;;2.45;;
43994;SDS011;51687;52.160;5.298;2024-03-23T11:12:54;9.73;;;2.60;;
43994;SDS011;51687;52.160;5.298;2024-03-23T11:15:21;14.43;;;2.65;;
43994;SDS011;51687;52.160;5.298;2024-03-23T11:18:03;6.55;;;2.00;;
43994;SDS011;51687;52.160;5.298;2024-03-23T11:20:35;10.50;;;2.55;;
43994;SDS011;51687;52.160;5.298;2024-03-23T11:23:02;9.98;;;2.55;;
43994;SDS011;51687;52.160;5.298;2024-03-23T11:25:29;9.85;;;2.38;;
43994;SDS011;51687;52.160;5.298;2024-03-23T11:27:56;12.30;;;3.38;;
43994;SDS011;51687;52.160;5.298;2024-03-23T11:30:23;11.90;;;2.58;;
43994;SDS011;51687;52.160;5.298;2024-03-23T11:32:50;11.50;;;2.60;;
43994;SDS011;51687;52.160;5.298;2024-03-23T11:35:26;9.80;;;2.20;;
43994;SDS011;51687;52.160;5.298;2024-03-23T11:40:38;10.00;;;2.67;;
43994;SDS011;51687;52.160;5.298;2024-03-23T11:43:06;9.98;;;2.55;;
43994;SDS011;51687;52.160;5.298;2024-03-23T11:45:37;8.27;;;2.47;;
43994;SDS011;51687;52.160;5.298;2024-03-23T11:48:09;12.63;;;2.38;;
43994;SDS011;51687;52.160;5.298;2024-03-23T11:50:47;8.25;;;2.85;;
43994;SDS011;51687;52.160;5.298;2024-03-23T11:53:18;8.25;;;2.25;;
43994;SDS011;51687;52.160;5.298;2024-03-23T11:55:52;8.68;;;2.03;;
43994;SDS011;51687;52.160;5.298;2024-03-23T11:58:27;9.32;;;1.90;;
43994;SDS011;51687;52.160;5.298;2024-03-23T12:00:56;12.23;;;2.53;;
43994;SDS011;51687;52.160;5.298;2024-03-23T12:03:23;9.55;;;1.77;;
43994;SDS011;51687;52.160;5.298;2024-03-23T12:05:57;7.82;;;2.97;;
43994;SDS011;51687;52.160;5.298;2024-03-23T12:08:29;10.32;;;2.42;;
43994;SDS011;51687;52.160;5.298;2024-03-23T12:11:06;7.88;;;2.30;;
43994;SDS011;51687;52.160;5.298;2024-03-23T12:13:40;10.93;;;1.90;;
43994;SDS011;51687;52.160;5.298;2024-03-23T12:16:09;8.30;;;2.30;;
43994;SDS011;51687;52.160;5.298;2024-03-23T12:18:36;12.52;;;2.25;;
43994;SDS011;51687;52.160;5.298;2024-03-23T12:21:03;6.93;;;2.05;;
43994;SDS011;51687;52.160;5.298;2024-03-23T12:23:29;9.50;;;2.42;;
43994;SDS011;51687;52.160;5.298;2024-03-23T12:25:55;6.82;;;1.90;;
43994;SDS011;51687;52.160;5.298;2024-03-23T12:28:21;8.63;;;2.33;;
43994;SDS011;51687;52.160;5.298;2024-03-23T12:30:46;8.60;;;1.98;;
43994;SDS011;51687;52.160;5.298;2024-03-23T12:33:12;6.95;;;2.05;;
43994;SDS011;51687;52.160;5.298;2024-03-23T12:35:38;13.88;;;2.47;;
43994;SDS011;51687;52.160;5.298;2024-03-23T12:38:05;10.13;;;2.15;;
43994;SDS011;51687;52.160;5.298;2024-03-23T12:40:32;6.53;;;2.15;;
43994;SDS011;51687;52.160;5.298;2024-03-23T12:42:59;6.78;;;2.05;;
43994;SDS011;51687;52.160;5.298;2024-03-23T12:45:25;6.68;;;2.05;;
43994;SDS011;51687;52.160;5.298;2024-03-23T12:47:51;7.35;;;2.00;;
43994;SDS011;51687;52.160;5.298;2024-03-23T12:50:19;9.50;;;2.35;;
43994;SDS011;51687;52.160;5.298;2024-03-23T12:52:45;5.68;;;1.92;;
43994;SDS011;51687;52.160;5.298;2024-03-23T12:55:11;9.07;;;1.90;;
43994;SDS011;51687;52.160;5.298;2024-03-23T12:57:37;8.95;;;2.42;;
43994;SDS011;51687;52.160;5.298;2024-03-23T13:00:03;8.82;;;2.25;;
43994;SDS011;51687;52.160;5.298;2024-03-23T13:02:30;6.28;;;2.13;;
43994;SDS011;51687;52.160;5.298;2024-03-23T13:04:57;6.25;;;1.48;;
43994;SDS011;51687;52.160;5.298;2024-03-23T13:07:23;6.45;;;1.73;;
43994;SDS011;51687;52.160;5.298;2024-03-23T13:09:52;7.88;;;2.28;;
43994;SDS011;51687;52.160;5.298;2024-03-23T13:12:33;8.70;;;2.45;;
43994;SDS011;51687;52.160;5.298;2024-03-23T13:14:59;6.72;;;1.85;;
43994;SDS011;51687;52.160;5.298;2024-03-23T13:17:26;4.88;;;1.60;;
43994;SDS011;51687;52.160;5.298;2024-03-23T13:19:53;7.43;;;2.13;;
43994;SDS011;51687;52.160;5.298;2024-03-23T13:22:22;4.15;;;1.05;;
43994;SDS011;51687;52.160;5.298;2024-03-23T13:24:48;4.25;;;1.10;;
43994;SDS011;51687;52.160;5.298;2024-03-23T13:27:14;3.55;;;1.00;;
43994;SDS011;51687;52.160;5.298;2024-03-23T13:29:41;3.88;;;1.05;;
43994;SDS011;51687;52.160;5.298;2024-03-23T13:32:07;2.72;;;0.80;;
43994;SDS011;51687;52.160;5.298;2024-03-23T13:34:35;3.45;;;0.75;;
43994;SDS011;51687;52.160;5.298;2024-03-23T13:37:01;4.13;;;1.42;;
43994;SDS011;51687;52.160;5.298;2024-03-23T13:39:27;3.30;;;1.02;;
43994;SDS011;51687;52.160;5.298;2024-03-23T13:41:53;5.88;;;2.28;;
43994;SDS011;51687;52.160;5.298;2024-03-23T13:44:22;4.65;;;1.20;;
43994;SDS011;51687;52.160;5.298;2024-03-23T13:46:54;7.43;;;1.58;;
43994;SDS011;51687;52.160;5.298;2024-03-23T13:49:29;5.50;;;2.08;;
43994;SDS011;51687;52.160;5.298;2024-03-23T13:51:57;6.95;;;1.45;;
43994;SDS011;51687;52.160;5.298;2024-03-23T13:54:24;6.85;;;1.65;;
43994;SDS011;51687;52.160;5.298;2024-03-23T13:56:51;5.53;;;1.42;;
43994;SDS011;51687;52.160;5.298;2024-03-23T13:59:18;5.80;;;1.63;;
43994;SDS011;51687;52.160;5.298;2024-03-23T14:01:44;8.45;;;2.22;;
43994;SDS011;51687;52.160;5.298;2024-03-23T14:04:13;5.55;;;2.00;;
43994;SDS011;51687;52.160;5.298;2024-03-23T14:06:42;13.02;;;2.45;;
43994;SDS011;51687;52.160;5.298;2024-03-23T14:09:14;9.40;;;2.17;;
43994;SDS011;51687;52.160;5.298;2024-03-23T14:11:41;7.60;;;2.08;;
43994;SDS011;51687;52.160;5.298;2024-03-23T14:14:08;8.47;;;2.10;;
43994;SDS011;51687;52.160;5.298;2024-03-23T14:16:36;9.73;;;1.92;;
43994;SDS011;51687;52.160;5.298;2024-03-23T14:19:02;7.60;;;2.03;;
43994;SDS011;51687;52.160;5.298;2024-03-23T14:21:32;9.38;;;2.38;;
43994;SDS011;51687;52.160;5.298;2024-03-23T14:24:00;8.88;;;2.20;;
43994;SDS011;51687;52.160;5.298;2024-03-23T14:26:27;8.90;;;1.95;;
43994;SDS011;51687;52.160;5.298;2024-03-23T14:28:54;9.55;;;2.28;;
43994;SDS011;51687;52.160;5.298;2024-03-23T14:31:20;10.05;;;2.28;;
43994;SDS011;51687;52.160;5.298;2024-03-23T14:33:46;7.85;;;1.83;;
43994;SDS011;51687;52.160;5.298;2024-03-23T14:36:16;7.00;;;1.80;;
43994;SDS011;51687;52.160;5.298;2024-03-23T14:38:48;8.68;;;1.83;;
43994;SDS011;51687;52.160;5.298;2024-03-23T14:41:14;6.57;;;1.65;;
43994;SDS011;51687;52.160;5.298;2024-03-23T14:43:40;4.38;;;1.45;;
43994;SDS011;51687;52.160;5.298;2024-03-23T14:48:39;6.65;;;1.10;;
43994;SDS011;51687;52.160;5.298;2024-03-23T14:51:05;5.93;;;1.52;;
43994;SDS011;51687;52.160;5.298;2024-03-23T14:53:33;6.45;;;1.85;;
43994;SDS011;51687;52.160;5.298;2024-03-23T14:56:05;9.60;;;2.47;;
43994;SDS011;51687;52.160;5.298;2024-03-23T14:58:33;7.22;;;2.30;;
43994;SDS011;51687;52.160;5.298;2024-03-23T15:01:02;8.63;;;1.80;;
43994;SDS011;51687;52.160;5.298;2024-03-23T15:03:35;9.27;;;2.40;;
43994;SDS011;51687;52.160;5.298;2024-03-23T15:06:08;5.20;;;1.92;;
43994;SDS011;51687;52.160;5.298;2024-03-23T15:08:34;3.70;;;1.30;;
43994;SDS011;51687;52.160;5.298;2024-03-23T15:11:01;4.53;;;1.50;;
43994;SDS011;51687;52.160;5.298;2024-03-23T15:13:34;6.93;;;1.45;;
43994;SDS011;51687;52.160;5.298;2024-03-23T15:16:00;8.25;;;2.15;;
43994;SDS011;51687;52.160;5.298;2024-03-23T15:18:29;10.18;;;2.05;;
43994;SDS011;51687;52.160;5.298;2024-03-23T15:21:01;7.47;;;1.70;;
43994;SDS011;51687;52.160;5.298;2024-03-23T15:23:30;6.10;;;1.77;;
43994;SDS011;51687;52.160;5.298;2024-03-23T15:25:57;6.38;;;2.47;;
43994;SDS011;51687;52.160;5.298;2024-03-23T15:28:27;5.78;;;1.88;;
43994;SDS011;51687;52.160;5.298;2024-03-23T15:31:03;6.45;;;1.50;;
43994;SDS011;51687;52.160;5.298;2024-03-23T15:33:30;5.65;;;1.70;;
43994;SDS011;51687;52.160;5.298;2024-03-23T15:36:02;6.93;;;1.70;;
43994;SDS011;51687;52.160;5.298;2024-03-23T15:38:28;5.68;;;1.60;;
43994;SDS011;51687;52.160;5.298;2024-03-23T15:40:56;5.13;;;1.73;;
43994;SDS011;51687;52.160;5.298;2024-03-23T15:43:22;5.57;;;1.63;;
43994;SDS011;51687;52.160;5.298;2024-03-23T15:45:54;6.43;;;2.08;;
43994;SDS011;51687;52.160;5.298;2024-03-23T15:48:21;8.73;;;1.80;;